Time;durP1;ratioP1;P1;durP2;ratioP2;P2;SDS_P1;SDS_P2;PMS_P1;PMS_P2;Temp;Humidity;BMP_temperature;BMP_pressure;BME280_temperature;BME280_humidity;BME280_pressure;Samples;Min_cycle;Max_cycle;Signal;HPM_P1;HPM_P2
2021/03/19 00:00:16;;;;;;;2.30;2.20;;;;;;;3.40;82.71;101525.97;5344643;26;20450;-69
2021/03/19 00:02:42;;;;;;;2.20;2.10;;;;;;;3.42;82.00;101529.41;5350055;26;20050;-66
2021/03/19 00:05:09;;;;;;;2.37;2.28;;;;;;;3.41;81.18;101527.69;5345525;26;20037;-66
2021/03/19 00:07:48;;;;;;;2.30;2.20;;;;;;;3.43;81.34;101527.66;5346105;26;20244;-68
2021/03/19 00:10:23;;;;;;;2.50;2.40;;;;;;;3.37;80.49;101538.97;5344535;26;21095;-68
2021/03/19 00:12:48;;;;;;;2.20;2.10;;;;;;;3.36;79.96;101532.91;5350103;26;20038;-68
2021/03/19 00:15:15;;;;;;;2.22;2.12;;;;;;;3.30;79.69;101532.97;5366042;26;20523;-68
2021/03/19 00:17:41;;;;;;;2.00;1.90;;;;;;;3.26;79.08;101533.84;5359103;26;20072;-68
2021/03/19 00:20:08;;;;;;;2.25;2.15;;;;;;;3.22;79.37;101536.50;5345646;26;20571;-69
2021/03/19 00:22:33;;;;;;;2.47;2.37;;;;;;;3.18;79.95;101541.69;5344243;26;20129;-67
2021/03/19 00:24:58;;;;;;;2.28;2.17;;;;;;;2.75;79.75;101471.19;5365648;26;20056;-67
2021/03/19 00:27:24;;;;;;;2.20;2.10;;;;;;;3.11;80.29;101542.63;5359500;26;20586;-67
2021/03/19 00:29:49;;;;;;;2.10;2.00;;;;;;;3.03;79.83;101543.53;5341935;26;20098;-68
2021/03/19 00:32:14;;;;;;;2.60;2.50;;;;;;;3.02;79.69;101547.88;5341144;26;20100;-67
2021/03/19 00:34:40;;;;;;;2.20;2.10;;;;;;;3.00;80.50;101554.81;5340499;26;20358;-68
2021/03/19 00:37:05;;;;;;;2.30;2.20;;;;;;;2.98;80.46;101559.16;5341439;26;20096;-67
2021/03/19 00:39:31;;;;;;;2.60;2.50;;;;;;;2.96;79.62;101558.28;5357969;26;20050;-67
2021/03/19 00:41:56;;;;;;;2.40;2.30;;;;;;;2.91;79.81;101549.72;5341054;26;20039;-67
2021/03/19 00:44:21;;;;;;;2.20;2.10;;;;;;;2.94;80.36;101554.84;5341867;26;20057;-67
2021/03/19 00:46:47;;;;;;;2.30;2.20;;;;;;;2.91;81.23;101553.16;5341942;26;20042;-67
2021/03/19 00:49:12;;;;;;;2.10;2.00;;;;;;;2.90;81.20;101550.56;5338906;26;20069;-68
2021/03/19 00:51:38;;;;;;;2.20;2.10;;;;;;;2.98;80.36;101564.34;5342878;26;20042;-68
2021/03/19 00:54:03;;;;;;;2.47;2.37;;;;;;;2.99;79.99;101564.34;5355529;26;20069;-67
2021/03/19 00:56:29;;;;;;;5.35;3.90;;;;;;;2.97;80.40;101563.47;5341718;26;20057;-68
2021/03/19 00:58:54;;;;;;;2.30;2.20;;;;;;;2.56;81.05;101511.91;5360427;26;20039;-68
2021/03/19 01:01:19;;;;;;;2.40;2.30;;;;;;;2.84;81.06;101553.19;5361630;26;20052;-67
2021/03/19 01:03:45;;;;;;;2.20;2.10;;;;;;;2.90;80.57;101572.16;5362642;26;20046;-67
2021/03/19 01:06:10;;;;;;;2.20;2.10;;;;;;;2.85;80.82;101578.28;5363089;26;20038;-67
2021/03/19 01:08:35;;;;;;;2.20;2.10;;;;;;;2.79;81.45;101576.56;5361865;26;20057;-67
2021/03/19 01:11:01;;;;;;;2.28;2.17;;;;;;;2.70;81.65;101566.25;5362064;26;20042;-67
2021/03/19 01:13:26;;;;;;;1.92;1.87;;;;;;;2.75;80.70;101575.72;5362686;26;20793;-67
2021/03/19 01:15:52;;;;;;;2.40;2.30;;;;;;;2.70;79.57;101567.09;5363141;26;20058;-67
2021/03/19 01:18:18;;;;;;;2.10;2.00;;;;;;;2.69;78.07;101585.28;5359708;26;20119;-66
2021/03/19 01:20:44;;;;;;;2.12;2.03;;;;;;;2.53;78.44;101558.56;5340534;26;20039;-67
2021/03/19 01:23:10;;;;;;;2.70;2.50;;;;;;;2.54;78.39;101571.50;5348834;26;20053;-67
2021/03/19 01:25:36;;;;;;;2.10;2.00;;;;;;;2.37;77.87;101552.59;5360360;26;20058;-67
2021/03/19 01:28:01;;;;;;;2.20;2.10;;;;;;;2.36;79.01;101569.84;5361939;26;20578;-66
2021/03/19 01:30:28;;;;;;;2.37;2.28;;;;;;;2.31;79.01;101569.03;5344101;26;20042;-67
2021/03/19 01:32:53;;;;;;;2.42;2.33;;;;;;;2.25;78.09;101552.66;5350249;26;20068;-67
2021/03/19 01:35:20;;;;;;;2.05;1.95;;;;;;;2.23;78.51;101570.78;5364085;26;20042;-67
2021/03/19 01:37:46;;;;;;;2.30;2.20;;;;;;;1.15;79.13;101399.44;5356771;26;20046;-66
2021/03/19 01:40:12;;;;;;;2.05;1.95;;;;;;;2.01;79.70;101561.38;5345976;26;20049;-67
2021/03/19 01:42:52;;;;;;;2.00;1.90;;;;;;;2.03;79.32;101570.00;5351713;26;20639;-67
2021/03/19 01:45:55;;;;;;;2.25;2.15;;;;;;;1.93;79.03;101570.00;5372638;26;20575;-66
2021/03/19 01:48:58;;;;;;;2.10;2.00;;;;;;;1.89;79.65;101582.97;5405403;26;20230;-67
2021/03/19 01:52:01;;;;;;;2.20;2.10;;;;;;;1.92;79.76;101588.97;5405816;26;20631;-67
2021/03/19 01:55:04;;;;;;;1.73;1.73;;;;;;;1.93;78.82;101595.03;5381238;26;20185;-67
2021/03/19 01:58:07;;;;;;;2.22;2.12;;;;;;;1.96;79.60;101595.87;5379944;26;20447;-67
2021/03/19 02:01:10;;;;;;;2.00;1.90;;;;;;;1.98;79.70;101606.22;5382625;26;20602;-66
2021/03/19 02:04:13;;;;;;;2.10;2.00;;;;;;;1.98;79.53;101590.69;5379514;26;20044;-67
2021/03/19 02:07:16;;;;;;;2.30;2.20;;;;;;;1.93;79.40;101595.03;5383707;26;20056;-67
2021/03/19 02:10:19;;;;;;;2.20;2.10;;;;;;;1.86;80.49;101595.91;5406205;26;20050;-65
2021/03/19 02:13:22;;;;;;;2.65;2.45;;;;;;;1.92;79.67;101594.16;5399144;26;20122;-67
2021/03/19 02:16:25;;;;;;;2.20;2.10;;;;;;;1.89;79.87;101607.13;5383167;26;20047;-66
2021/03/19 02:19:28;;;;;;;2.10;2.00;;;;;;;1.92;80.02;101608.81;5385751;26;20268;-66
2021/03/19 02:22:31;;;;;;;2.10;2.00;;;;;;;1.83;80.10;101596.78;5383654;26;20047;-67
2021/03/19 02:25:34;;;;;;;2.30;2.20;;;;;;;1.79;80.26;101605.41;5382227;26;20908;-67
2021/03/19 02:28:36;;;;;;;2.10;2.00;;;;;;;1.70;81.16;101613.16;5381830;26;20129;-67
2021/03/19 02:31:11;;;;;;;2.45;2.35;;;;;;;1.75;80.28;101604.53;5383267;26;20370;-67
2021/03/19 02:33:45;;;;;;;1.80;1.80;;;;;;;1.54;81.14;101579.56;5380778;26;20358;-66
2021/03/19 02:36:10;;;;;;;2.10;2.00;;;;;;;0.63;81.37;101449.44;5365589;26;20157;-67
2021/03/19 02:38:36;;;;;;;2.03;1.92;;;;;;;1.47;81.83;101608.03;5343896;26;20038;-67
2021/03/19 02:41:01;;;;;;;2.83;2.72;;;;;;;0.38;82.05;101445.94;5345904;26;20111;-68
2021/03/19 02:43:27;;;;;;;1.80;1.80;;;;;;;1.49;82.14;101614.91;5343703;26;20397;-66
2021/03/19 02:45:52;;;;;;;2.40;2.30;;;;;;;1.11;82.20;101563.19;5342106;26;20029;-68
2021/03/19 02:48:19;;;;;;;2.40;2.30;;;;;;;1.37;82.37;101609.72;5344800;26;20038;-68
2021/03/19 02:50:45;;;;;;;2.12;2.05;;;;;;;1.32;82.88;101614.03;5346100;26;20164;-65
2021/03/19 02:53:15;;;;;;;2.33;2.22;;;;;;;1.20;82.44;101596.78;5354772;26;20102;-66
2021/03/19 02:55:40;;;;;;;2.20;2.10;;;;;;;1.22;82.90;101613.16;5366318;26;20042;-68
2021/03/19 02:58:05;;;;;;;2.20;2.10;;;;;;;1.28;82.83;101617.47;5356662;26;20374;-68
2021/03/19 03:00:31;;;;;;;5.15;2.00;;;;;;;1.28;82.73;101627.81;5344618;26;20422;-66
2021/03/19 03:02:56;;;;;;;2.25;2.15;;;;;;;1.24;82.96;101624.34;5350845;26;20057;-68
2021/03/19 03:05:21;;;;;;;2.58;2.37;;;;;;;1.31;82.62;101628.69;5344449;26;20046;-67
2021/03/19 03:07:47;;;;;;;2.15;2.05;;;;;;;1.28;83.23;101633.84;5344114;26;20044;-67
2021/03/19 03:10:14;;;;;;;1.67;1.67;;;;;;;1.27;82.93;101626.97;5344869;26;20050;-67
2021/03/19 03:12:40;;;;;;;2.20;2.10;;;;;;;1.23;83.39;101632.12;5347923;26;20143;-67
2021/03/19 03:15:07;;;;;;;2.10;2.00;;;;;;;1.22;83.38;101625.22;5344126;26;20033;-67
2021/03/19 03:17:32;;;;;;;2.00;1.90;;;;;;;-0.07;83.00;101420.03;5344439;26;20077;-67
2021/03/19 03:19:58;;;;;;;2.30;2.20;;;;;;;1.19;83.79;101629.53;5344440;26;20600;-67
2021/03/19 03:22:23;;;;;;;2.35;2.25;;;;;;;1.22;84.04;101630.41;5345774;26;20175;-68
2021/03/19 03:24:48;;;;;;;2.70;2.60;;;;;;;0.98;83.54;101606.22;5345337;26;20393;-67
2021/03/19 03:27:14;;;;;;;2.35;2.25;;;;;;;1.21;83.26;101651.97;5344489;26;20069;-67
2021/03/19 03:29:39;;;;;;;2.08;1.98;;;;;;;1.17;83.08;101636.44;5347081;26;20049;-67
2021/03/19 03:32:05;;;;;;;2.08;1.98;;;;;;;1.30;82.85;101663.16;5344136;26;20511;-67
2021/03/19 03:34:31;;;;;;;2.45;2.35;;;;;;;1.31;82.89;101666.63;5344255;26;20102;-67
2021/03/19 03:36:56;;;;;;;2.67;2.58;;;;;;;1.23;83.10;101670.91;5345433;26;20464;-67
2021/03/19 03:39:26;;;;;;;2.53;2.42;;;;;;;1.22;83.42;101684.69;5343768;26;20554;-67
2021/03/19 03:41:52;;;;;;;2.20;2.10;;;;;;;1.17;82.77;101687.28;5344546;26;20263;-67
2021/03/19 03:44:18;;;;;;;1.70;1.70;;;;;;;1.15;83.50;101686.41;5345476;26;20312;-67
2021/03/19 03:46:45;;;;;;;2.15;2.05;;;;;;;1.17;82.87;101688.13;5362117;26;20402;-67
2021/03/19 03:49:10;;;;;;;2.53;2.42;;;;;;;1.17;82.97;101685.53;5346564;26;20107;-67
2021/03/19 03:51:35;;;;;;;2.25;2.15;;;;;;;0.82;82.88;101644.09;5346161;26;20476;-67
2021/03/19 03:54:01;;;;;;;2.35;2.25;;;;;;;1.06;83.26;101697.56;5342534;26;20061;-67
2021/03/19 03:56:27;;;;;;;1.70;1.70;;;;;;;1.02;83.55;101688.06;5343588;26;20102;-67
2021/03/19 03:58:52;;;;;;;1.80;1.80;;;;;;;1.03;83.53;101689.81;5344063;26;20393;-67
2021/03/19 04:01:18;;;;;;;2.10;2.00;;;;;;;1.01;83.52;101701.88;5344747;26;20038;-66
2021/03/19 04:03:43;;;;;;;2.42;2.33;;;;;;;0.81;84.02;101669.94;5342732;26;20031;-66
2021/03/19 04:06:09;;;;;;;1.70;1.70;;;;;;;0.78;84.16;101670.75;5346495;26;20105;-66
2021/03/19 04:08:34;;;;;;;2.67;2.53;;;;;;;0.76;84.05;101668.19;5342992;26;20035;-66
2021/03/19 04:11:03;;;;;;;2.85;2.65;;;;;;;0.89;83.69;101727.69;5344649;26;20072;-67
2021/03/19 04:13:29;;;;;;;1.95;1.90;;;;;;;0.34;83.49;101615.50;5345273;26;20061;-67
2021/03/19 04:15:55;;;;;;;2.10;2.00;;;;;;;0.90;83.60;101711.31;5341425;26;20046;-67
2021/03/19 04:18:20;;;;;;;2.00;1.90;;;;;;;0.90;83.35;101722.53;5354398;26;20089;-67
2021/03/19 04:20:46;;;;;;;2.22;2.12;;;;;;;0.99;83.57;101732.03;5342945;26;20491;-66
2021/03/19 04:23:12;;;;;;;1.80;1.80;;;;;;;1.03;83.42;101743.25;5352244;26;20042;-67
2021/03/19 04:25:37;;;;;;;2.00;1.90;;;;;;;1.17;82.84;101728.66;5344907;26;20239;-66
2021/03/19 04:28:05;;;;;;;2.10;2.00;;;;;;;1.33;82.58;101738.16;5350475;26;20398;-67
2021/03/19 04:30:34;;;;;;;1.77;1.77;;;;;;;1.40;81.66;101733.88;5345961;26;20347;-66
2021/03/19 04:33:00;;;;;;;2.28;2.17;;;;;;;1.40;82.30;101715.75;5343547;26;20056;-67
2021/03/19 04:35:25;;;;;;;1.80;1.80;;;;;;;1.54;82.82;101733.91;5345654;26;20160;-67
2021/03/19 04:37:52;;;;;;;2.20;2.10;;;;;;;1.59;82.27;101738.22;5343666;26;20471;-67
2021/03/19 04:40:17;;;;;;;1.87;1.87;;;;;;;0.18;81.55;101489.78;5345957;26;20199;-67
2021/03/19 04:42:43;;;;;;;1.95;1.87;;;;;;;1.59;81.95;101732.19;5346994;26;20064;-68
2021/03/19 04:45:10;;;;;;;3.03;2.92;;;;;;;1.66;81.01;101740.81;5344900;26;20038;-67
2021/03/19 04:47:36;;;;;;;2.35;2.25;;;;;;;1.65;81.98;101739.09;5346443;26;20165;-67
2021/03/19 04:50:01;;;;;;;2.00;1.90;;;;;;;1.63;81.66;101743.41;5365339;26;20115;-67
2021/03/19 04:52:26;;;;;;;3.08;2.87;;;;;;;1.65;81.90;101744.28;5364895;26;20044;-67
2021/03/19 04:54:52;;;;;;;2.10;2.00;;;;;;;1.62;81.55;101747.72;5364126;26;20038;-67
2021/03/19 04:57:17;;;;;;;2.10;2.00;;;;;;;1.60;81.69;101746.84;5362055;26;20794;-67
2021/03/19 04:59:42;;;;;;;2.25;2.15;;;;;;;1.61;80.70;101756.34;5346194;26;20056;-67
2021/03/19 05:02:08;;;;;;;2.17;2.08;;;;;;;1.56;80.21;101758.03;5347277;26;20030;-67
2021/03/19 05:04:33;;;;;;;2.00;1.90;;;;;;;1.48;81.03;101765.78;5344384;26;20471;-68
2021/03/19 05:07:01;;;;;;;2.60;2.40;;;;;;;1.46;81.03;101772.69;5347133;26;20056;-67
2021/03/19 05:09:28;;;;;;;2.10;2.00;;;;;;;1.42;81.54;101770.09;5364441;26;20030;-67
2021/03/19 05:11:53;;;;;;;2.00;1.90;;;;;;;1.35;82.35;101764.91;5364142;26;20102;-67
2021/03/19 05:14:19;;;;;;;2.22;2.12;;;;;;;1.30;82.64;101773.50;5344637;26;20042;-67
2021/03/19 05:16:44;;;;;;;2.85;2.72;;;;;;;1.20;83.16;101770.00;5345997;26;20038;-67
2021/03/19 05:19:10;;;;;;;2.10;2.00;;;;;;;1.11;83.20;101770.84;5344081;26;20114;-67
2021/03/19 05:21:35;;;;;;;2.10;2.00;;;;;;;0.96;83.10;101760.44;5345577;26;20037;-67
2021/03/19 05:24:00;;;;;;;2.58;2.47;;;;;;;0.96;82.82;101791.44;5343489;26;20156;-67
2021/03/19 05:26:26;;;;;;;2.10;2.00;;;;;;;0.90;82.92;101791.41;5344903;26;20045;-68
2021/03/19 05:28:51;;;;;;;2.35;2.25;;;;;;;0.84;83.61;101806.87;5359440;26;20042;-67
2021/03/19 05:31:16;;;;;;;2.10;2.00;;;;;;;0.84;83.65;101804.31;5344639;26;20056;-67
2021/03/19 05:33:47;;;;;;;2.20;2.10;;;;;;;0.81;84.15;101822.38;5345339;26;20373;-67
2021/03/19 05:36:13;;;;;;;1.80;1.70;;;;;;;0.45;83.50;101773.06;5345615;26;20241;-67
2021/03/19 05:38:39;;;;;;;1.80;1.80;;;;;;;0.74;83.85;101817.19;5347436;26;20550;-67
2021/03/19 05:41:04;;;;;;;1.80;1.80;;;;;;;0.78;83.47;101820.63;5346806;26;20247;-67
2021/03/19 05:43:32;;;;;;;1.80;1.80;;;;;;;0.71;83.23;101811.12;5358467;26;20109;-67
2021/03/19 05:45:59;;;;;;;2.45;2.35;;;;;;;0.73;83.32;101810.28;5346915;26;20057;-66
2021/03/19 05:48:26;;;;;;;1.90;1.80;;;;;;;0.66;82.81;101798.19;5368074;26;20030;-66
2021/03/19 05:50:51;;;;;;;15.05;3.47;;;;;;;0.65;83.12;101817.13;5348666;26;20050;-67
2021/03/19 05:53:19;;;;;;;2.75;2.55;;;;;;;0.59;83.11;101817.94;5358805;26;20165;-66
2021/03/19 05:55:44;;;;;;;1.90;1.85;;;;;;;0.52;83.10;101825.63;5369455;26;20046;-66
2021/03/19 05:58:26;;;;;;;1.90;1.90;;;;;;;0.61;82.62;101837.75;5360194;26;20468;-66
2021/03/19 06:00:55;;;;;;;2.08;1.98;;;;;;;0.55;82.32;101820.50;5352738;26;20231;-67
2021/03/19 06:03:21;;;;;;;2.10;2.00;;;;;;;0.31;81.79;101837.50;5363185;26;20066;-66
2021/03/19 06:06:01;;;;;;;2.50;2.40;;;;;;;0.64;81.57;101841.19;5371122;26;20038;-66
2021/03/19 06:08:29;;;;;;;1.73;1.73;;;;;;;0.66;81.79;101839.53;5373270;26;20046;-66
2021/03/19 06:11:07;;;;;;;3.20;3.10;;;;;;;0.68;80.58;101832.66;5373676;26;20870;-66
2021/03/19 06:13:58;;;;;;;2.22;2.12;;;;;;;0.72;80.31;101836.97;5357342;26;20338;-66
2021/03/19 06:16:54;;;;;;;2.60;2.45;;;;;;;0.79;80.69;101845.62;5370290;26;20031;-66
2021/03/19 06:19:35;;;;;;;2.20;2.10;;;;;;;0.78;80.43;101865.44;5349133;26;20133;-65
2021/03/19 06:22:06;;;;;;;1.80;1.80;;;;;;;0.82;80.72;101860.28;5368527;26;20491;-67
2021/03/19 06:24:32;;;;;;;2.03;1.92;;;;;;;0.84;80.45;101872.34;5370333;26;20530;-66
2021/03/19 06:27:49;;;;;;;1.83;1.83;;;;;;;0.89;81.05;101872.41;5366897;26;20035;-67
2021/03/19 06:30:42;;;;;;;1.75;1.75;;;;;;;0.92;80.39;101877.56;5350409;26;20231;-65
2021/03/19 06:33:10;;;;;;;;;;;;;;;0.97;80.18;101881.06;5376337;26;20050;-65
2021/03/19 06:35:37;;;;;;;2.03;1.92;;;;;;;1.00;80.31;101878.47;5388004;26;19957;-68
2021/03/19 06:38:27;;;;;;;2.17;2.08;;;;;;;1.05;80.64;101891.47;5338451;26;20056;-68
2021/03/19 06:40:52;;;;;;;2.85;2.75;;;;;;;0.93;80.94;101871.56;5380964;26;20057;-69
2021/03/19 06:43:24;;;;;;;2.28;2.17;;;;;;;1.12;81.10;101896.69;5351128;26;20102;-70
2021/03/19 06:46:06;;;;;;;2.20;2.10;;;;;;;1.11;80.54;101887.19;5364062;26;20057;-70
2021/03/19 06:48:41;;;;;;;2.17;2.08;;;;;;;1.22;81.51;101900.16;5355596;26;20069;-67
2021/03/19 06:51:11;;;;;;;1.85;1.80;;;;;;;0.92;80.72;101846.56;5344587;26;20137;-70
2021/03/19 06:53:37;;;;;;;2.17;2.08;;;;;;;1.27;81.19;101901.06;5364505;26;20447;-71
2021/03/19 06:56:15;;;;;;;2.00;1.90;;;;;;;-0.23;79.77;101650.41;5344074;26;20052;-72
2021/03/19 06:58:47;;;;;;;2.55;2.35;;;;;;;1.36;80.01;101895.06;5375023;26;20042;-71
2021/03/19 07:01:31;;;;;;;2.12;2.03;;;;;;;1.45;80.08;101902.88;5349240;26;20074;-76
2021/03/19 07:04:34;;;;;;;2.00;1.90;;;;;;;1.52;79.80;101896.88;5359192;26;20042;-73
2021/03/19 07:07:27;;;;;;;2.37;2.12;;;;;;;1.57;78.36;101921.06;5381425;26;20389;-72
2021/03/19 07:10:02;;;;;;;;;;;;;;;1.61;78.60;101911.59;5380181;26;20054;-70
2021/03/19 07:12:52;;;;;;;2.08;1.98;;;;;;;1.59;78.88;101914.16;5381221;26;20061;-72
2021/03/19 07:15:33;;;;;;;1.80;1.80;;;;;;;1.67;78.00;101909.03;5364496;26;20654;-72
2021/03/19 07:18:07;;;;;;;2.10;2.00;;;;;;;1.72;77.89;101920.25;5368707;26;20038;-71
2021/03/19 07:20:51;;;;;;;2.05;1.98;;;;;;;1.71;77.70;101921.13;5362146;26;20072;-72
2021/03/19 07:23:40;;;;;;;2.40;2.30;;;;;;;1.74;76.62;101935.78;5364548;26;20244;-72
2021/03/19 07:26:13;;;;;;;1.92;1.87;;;;;;;1.74;75.83;101936.62;5357033;26;20038;-71
2021/03/19 07:29:12;;;;;;;2.47;2.37;;;;;;;1.72;75.29;101935.75;5368311;26;20053;-71
2021/03/19 07:31:53;;;;;;;2.10;2.00;;;;;;;1.81;76.46;101934.09;5381640;26;20586;-71
2021/03/19 07:34:21;;;;;;;2.42;2.22;;;;;;;1.88;75.50;101939.28;5365983;26;20462;-70
2021/03/19 07:37:13;;;;;;;2.10;2.00;;;;;;;2.01;77.18;101937.63;5404385;26;20362;-71
2021/03/19 07:40:01;;;;;;;2.20;2.10;;;;;;;2.06;76.04;101945.41;5384614;26;20042;-73
2021/03/19 07:42:42;;;;;;;1.87;1.85;;;;;;;2.10;75.13;101957.50;5381065;26;20058;-72
2021/03/19 07:45:29;;;;;;;2.33;2.15;;;;;;;2.08;75.58;101954.03;5362716;26;20179;-72
2021/03/19 07:48:15;;;;;;;2.30;2.20;;;;;;;2.07;75.09;101957.50;5380348;26;20058;-72
2021/03/19 07:51:08;;;;;;;2.00;1.90;;;;;;;1.01;73.54;101752.72;5362559;26;20077;-72
2021/03/19 07:53:55;;;;;;;2.00;1.90;;;;;;;2.27;73.34;101975.69;5362715;26;20429;-73
2021/03/19 07:56:29;;;;;;;2.20;2.10;;;;;;;2.07;72.90;101973.88;5381113;26;20627;-72
2021/03/19 07:59:08;;;;;;;2.28;2.17;;;;;;;2.09;73.81;101979.94;5377001;26;20038;-73
2021/03/19 08:01:46;;;;;;;2.95;2.75;;;;;;;2.12;73.66;101987.69;5361416;26;20409;-75
2021/03/19 08:04:20;;;;;;;2.15;2.05;;;;;;;2.21;73.53;101992.06;5380211;26;20099;-69
2021/03/19 08:06:50;;;;;;;2.30;2.20;;;;;;;2.12;73.68;101982.53;5343108;26;20057;-68
2021/03/19 08:09:43;;;;;;;2.40;2.30;;;;;;;0.95;73.82;101756.13;5360291;26;20043;-71
2021/03/19 08:12:22;;;;;;;2.30;2.20;;;;;;;2.27;71.53;101954.97;5344880;26;20168;-74
2021/03/19 08:14:54;;;;;;;2.10;2.00;;;;;;;2.52;71.43;101976.59;5363274;26;20059;-72
2021/03/19 08:17:25;;;;;;;;;;;;;;;2.59;70.76;101989.56;5360128;26;20138;-72
2021/03/19 08:20:16;;;;;;;2.25;2.15;;;;;;;2.66;70.15;101987.84;5363059;26;20522;-71
2021/03/19 08:22:45;;;;;;;2.47;2.37;;;;;;;2.79;70.75;101989.59;5361201;26;20082;-71
2021/03/19 08:25:21;;;;;;;2.78;2.67;;;;;;;2.86;70.85;101989.59;5362946;26;20062;-72
2021/03/19 08:27:50;;;;;;;2.40;2.30;;;;;;;2.77;68.90;101968.00;5347479;26;20111;-76
2021/03/19 08:30:16;;;;;;;2.05;1.95;;;;;;;2.92;69.21;102003.41;5319983;26;20062;-73
2021/03/19 08:33:06;;;;;;;2.30;2.20;;;;;;;3.02;69.23;102006.03;5361878;26;20059;-73
2021/03/19 08:35:58;;;;;;;2.37;2.28;;;;;;;3.13;69.01;102002.56;5381455;26;20099;-74
2021/03/19 08:38:30;;;;;;;2.20;2.10;;;;;;;3.27;68.58;101999.97;5340843;26;20070;-72
2021/03/19 08:40:59;;;;;;;2.60;2.50;;;;;;;3.19;66.68;101999.13;5360437;26;20489;-71
2021/03/19 08:43:30;;;;;;;9.10;3.40;;;;;;;3.12;66.80;102005.16;5340101;26;20051;-71
2021/03/19 08:46:04;;;;;;;2.40;2.30;;;;;;;3.27;67.59;102010.34;5342216;26;20122;-72
2021/03/19 08:48:30;;;;;;;2.60;2.50;;;;;;;3.36;66.34;102010.31;5336626;26;20050;-67
2021/03/19 08:50:55;;;;;;;2.30;2.20;;;;;;;3.46;66.39;102005.97;5340293;26;20504;-70
2021/03/19 08:53:22;;;;;;;2.40;2.30;;;;;;;3.54;65.43;102006.84;5338650;26;20100;-73
2021/03/19 08:56:03;;;;;;;2.30;2.20;;;;;;;3.73;67.09;102020.66;5342321;26;20058;-73
2021/03/19 08:58:29;;;;;;;2.30;2.20;;;;;;;3.91;64.36;102024.94;5356360;26;20043;-71
2021/03/19 09:01:04;;;;;;;2.30;2.20;;;;;;;3.79;63.09;102030.16;5352199;26;20112;-77
2021/03/19 09:03:42;;;;;;;2.30;2.20;;;;;;;3.80;62.58;102024.94;5363839;26;20093;-72
2021/03/19 09:06:22;;;;;;;2.20;2.10;;;;;;;3.91;64.59;102034.44;5354932;26;20047;-71
2021/03/19 09:08:59;;;;;;;2.40;2.30;;;;;;;3.92;63.27;102044.81;5347567;26;20146;-70
2021/03/19 09:11:37;;;;;;;2.20;2.10;;;;;;;3.99;62.36;102037.91;5359990;26;20065;-70
2021/03/19 09:14:05;;;;;;;2.20;2.10;;;;;;;3.88;63.83;102040.50;5376111;26;20380;-70
2021/03/19 09:16:46;;;;;;;2.62;2.53;;;;;;;4.05;62.43;102043.06;5376614;26;20043;-73
2021/03/19 09:19:40;;;;;;;2.30;2.20;;;;;;;4.08;63.11;102044.78;5376142;26;20042;-73
2021/03/19 09:22:21;;;;;;;2.33;2.22;;;;;;;4.28;63.58;102044.72;5380499;26;20039;-76
2021/03/19 09:25:11;;;;;;;2.40;2.30;;;;;;;4.32;62.34;102047.28;5382285;26;20119;-77
2021/03/19 09:28:13;;;;;;;2.50;2.40;;;;;;;4.56;61.88;102040.22;5385056;26;20039;-77
2021/03/19 09:31:07;;;;;;;2.20;2.10;;;;;;;4.32;60.85;102029.09;5383784;26;20034;-76
2021/03/19 09:33:48;;;;;;;2.70;2.60;;;;;;;4.65;61.42;102054.91;5327620;26;20057;-77
2021/03/19 09:36:52;;;;;;;2.50;2.40;;;;;;;3.64;61.11;101892.59;5355863;26;20148;-69
2021/03/19 09:39:46;;;;;;;2.20;2.10;;;;;;;4.59;61.97;102066.19;5352752;26;20116;-71
2021/03/19 09:42:17;;;;;;;2.50;2.40;;;;;;;4.61;58.99;102059.28;5354812;26;20066;-70
2021/03/19 09:44:42;;;;;;;2.95;2.85;;;;;;;3.75;58.01;101922.84;5352797;26;20184;-74
2021/03/19 09:47:07;;;;;;;2.60;2.50;;;;;;;4.75;59.42;102075.66;5343477;26;20048;-71
2021/03/19 09:49:33;;;;;;;2.30;2.20;;;;;;;4.75;57.71;102051.38;5337225;26;20049;-70
2021/03/19 09:51:58;;;;;;;2.50;2.40;;;;;;;4.72;57.21;102072.22;5339647;26;20113;-70
2021/03/19 09:54:26;;;;;;;3.28;3.17;;;;;;;4.99;58.52;102079.84;5337313;26;20050;-71
2021/03/19 09:56:54;;;;;;;2.60;2.50;;;;;;;4.42;57.94;102076.69;5355858;26;20046;-71
2021/03/19 09:59:25;;;;;;;2.60;2.50;;;;;;;4.35;58.74;102082.78;5356839;26;20055;-71
2021/03/19 10:01:50;;;;;;;2.60;2.50;;;;;;;4.55;57.88;102090.47;5320560;26;20047;-71
2021/03/19 10:04:38;;;;;;;2.50;2.40;;;;;;;4.56;58.32;102094.81;5343570;26;20086;-71
2021/03/19 10:07:23;;;;;;;2.40;2.30;;;;;;;4.48;56.90;102086.19;5360098;26;20051;-71
2021/03/19 10:09:49;;;;;;;2.30;2.20;;;;;;;3.57;57.00;101904.75;5339529;26;20047;-71
2021/03/19 10:12:19;;;;;;;2.30;2.20;;;;;;;5.16;58.67;102087.53;5355146;26;20059;-69
2021/03/19 10:14:53;;;;;;;2.30;2.20;;;;;;;4.94;54.99;102091.16;5352918;26;20043;-69
2021/03/19 10:17:27;;;;;;;2.50;2.40;;;;;;;4.69;56.50;102026.28;5315345;26;20039;-69
2021/03/19 10:20:11;;;;;;;2.40;2.30;;;;;;;5.00;52.74;102098.91;5337715;26;20057;-70
2021/03/19 10:22:41;;;;;;;2.50;2.40;;;;;;;5.06;56.09;102098.88;5354383;26;20488;-67
2021/03/19 10:25:13;;;;;;;2.40;2.30;;;;;;;5.43;58.59;102090.78;5318195;26;20051;-68
2021/03/19 10:27:46;;;;;;;2.80;2.70;;;;;;;4.86;54.83;102053.94;5352375;26;20096;-68
2021/03/19 10:30:22;;;;;;;2.35;2.25;;;;;;;5.36;54.81;102095.19;5338939;26;20057;-68
2021/03/19 10:32:48;;;;;;;2.67;2.58;;;;;;;5.58;55.81;102098.47;5342568;26;20616;-69
2021/03/19 10:35:19;;;;;;;2.40;2.30;;;;;;;5.68;51.99;102099.25;5339307;26;20043;-68
2021/03/19 10:38:10;;;;;;;2.70;2.60;;;;;;;5.78;52.07;102102.62;5335643;26;20065;-67
2021/03/19 10:40:37;;;;;;;2.42;2.33;;;;;;;5.79;53.54;102101.75;5360413;26;20053;-66
2021/03/19 10:43:10;;;;;;;2.60;2.50;;;;;;;5.53;53.68;102110.69;5347451;26;20132;-67
2021/03/19 10:45:53;;;;;;;2.30;2.20;;;;;;;5.27;53.71;102113.50;5358064;26;20070;-67
2021/03/19 10:48:44;;;;;;;2.42;2.30;;;;;;;5.69;52.38;102113.12;5356831;26;20361;-68
2021/03/19 10:51:21;;;;;;;2.70;2.60;;;;;;;5.96;52.07;102107.69;5359420;26;20047;-69
2021/03/19 10:54:20;;;;;;;2.40;2.30;;;;;;;5.69;50.98;102114.00;5355642;26;20151;-70
2021/03/19 10:56:50;;;;;;;3.10;3.00;;;;;;;5.31;51.54;102049.22;5341132;26;20079;-69
2021/03/19 10:59:28;;;;;;;2.50;2.40;;;;;;;5.27;49.60;102116.09;5356389;26;20043;-71
2021/03/19 11:01:54;;;;;;;2.80;2.70;;;;;;;5.05;51.71;102060.75;5376774;26;20388;-67
2021/03/19 11:04:42;;;;;;;2.30;2.20;;;;;;;5.65;50.72;102116.62;5336488;26;20185;-69
2021/03/19 11:07:22;;;;;;;2.83;2.72;;;;;;;5.38;50.80;102113.41;5343234;26;20477;-67
2021/03/19 11:10:06;;;;;;;2.50;2.40;;;;;;;5.87;51.45;102114.69;5403075;26;20481;-67
2021/03/19 11:12:36;;;;;;;3.15;3.05;;;;;;;5.71;51.32;102109.66;5397619;26;20081;-68
2021/03/19 11:15:08;;;;;;;2.47;2.37;;;;;;;5.52;49.80;102108.09;5361021;26;20046;-67
2021/03/19 11:17:34;;;;;;;3.08;2.97;;;;;;;5.63;50.25;102116.66;5360318;26;20051;-67
2021/03/19 11:20:03;;;;;;;2.75;2.65;;;;;;;5.75;51.66;102115.69;5361310;26;20112;-66
2021/03/19 11:22:48;;;;;;;2.40;2.30;;;;;;;5.66;50.04;102121.84;5360606;26;20188;-69
2021/03/19 11:25:46;;;;;;;2.40;2.30;;;;;;;6.04;51.36;102109.38;5362607;26;20042;-67
2021/03/19 11:28:32;;;;;;;2.70;2.60;;;;;;;6.30;50.10;102116.91;5370007;26;20068;-67
2021/03/19 11:31:27;;;;;;;2.40;2.30;;;;;;;6.14;49.96;102118.81;5362010;26;20058;-66
2021/03/19 11:34:07;;;;;;;2.70;2.60;;;;;;;5.99;49.03;102110.28;5360014;26;20042;-66
2021/03/19 11:37:06;;;;;;;2.70;2.60;;;;;;;6.16;51.75;102110.09;5343848;26;20039;-66
2021/03/19 11:39:55;;;;;;;2.50;2.40;;;;;;;6.18;48.56;102115.28;5346211;26;20061;-66
2021/03/19 11:42:26;;;;;;;2.67;2.58;;;;;;;6.28;47.63;102116.91;5379402;26;20039;-67
2021/03/19 11:44:55;;;;;;;2.50;2.40;;;;;;;6.35;48.38;102122.91;5361533;26;20057;-66
2021/03/19 11:47:22;;;;;;;2.60;2.50;;;;;;;6.45;49.60;102118.44;5361923;26;20046;-66
2021/03/19 11:49:47;;;;;;;2.70;2.60;;;;;;;6.42;48.10;102105.47;5362811;26;20592;-66
2021/03/19 11:52:13;;;;;;;2.70;2.60;;;;;;;6.52;46.53;102091.41;5342203;26;20057;-66
2021/03/19 11:54:39;;;;;;;2.50;2.40;;;;;;;6.58;47.56;102125.25;5361681;26;20060;-67
2021/03/19 11:57:06;;;;;;;2.70;2.60;;;;;;;6.56;48.93;102113.97;5342596;26;20058;-66
2021/03/19 11:59:31;;;;;;;2.80;2.70;;;;;;;6.27;48.08;102062.16;5361048;26;20374;-71
2021/03/19 12:01:59;;;;;;;2.70;2.60;;;;;;;6.70;47.88;102103.34;5343299;26;20039;-65
2021/03/19 12:04:24;;;;;;;3.20;3.10;;;;;;;6.75;46.89;102098.94;5357958;26;20058;-65